createdAt,value
2023-04-29T00:00:13.147Z,1.50
2023-04-29T00:05:14.594Z,1.60
2023-04-29T00:10:16.610Z,1.50
2023-04-29T00:15:18.080Z,1.80
2023-04-29T00:20:19.470Z,1.70
2023-04-29T00:25:20.836Z,1.60
2023-04-29T00:30:22.144Z,1.80
2023-04-29T00:35:23.472Z,1.70
2023-04-29T00:40:24.808Z,1.60
2023-04-29T00:45:27.526Z,1.73
2023-04-29T00:50:29.238Z,1.77
2023-04-29T00:55:31.209Z,1.80
2023-04-29T01:00:32.849Z,1.70
2023-04-29T01:05:34.190Z,1.52
2023-04-29T01:10:48.871Z,1.50
2023-04-29T01:15:51.165Z,1.70
2023-04-29T01:20:52.769Z,2.10
2023-04-29T01:25:54.273Z,1.92
2023-04-29T01:31:11.358Z,1.90
2023-04-29T01:36:17.575Z,2.00
2023-04-29T01:41:23.585Z,2.20
2023-04-29T01:46:24.937Z,2.50
2023-04-29T01:51:26.517Z,2.05
2023-04-29T01:56:27.835Z,2.00
2023-04-29T02:01:29.528Z,1.87
2023-04-29T02:06:32.206Z,1.90
2023-04-29T02:11:33.579Z,1.87
2023-04-29T02:16:35.032Z,2.10
2023-04-29T02:21:36.405Z,2.00
2023-04-29T02:26:38.297Z,1.73
2023-04-29T02:31:39.665Z,2.00
2023-04-29T02:36:40.972Z,2.00
2023-04-29T02:41:42.443Z,2.10
2023-04-29T02:46:45.695Z,2.60
2023-04-29T02:51:49.625Z,2.00
2023-04-29T02:56:50.887Z,2.07
2023-04-29T03:01:54.051Z,2.20
2023-04-29T03:06:56.793Z,1.90
2023-04-29T03:11:58.364Z,2.17
2023-04-29T03:16:59.763Z,1.80
2023-04-29T03:22:01.080Z,1.95
2023-04-29T03:27:02.369Z,2.17
2023-04-29T03:32:03.736Z,2.17
2023-04-29T03:37:04.999Z,2.30
2023-04-29T03:42:06.246Z,2.03
2023-04-29T03:47:08.223Z,2.40
2023-04-29T03:52:09.598Z,2.20
2023-04-29T03:57:10.877Z,1.93
2023-04-29T04:02:12.285Z,1.93
2023-04-29T04:07:13.600Z,2.40
2023-04-29T04:12:15.144Z,2.10
2023-04-29T04:17:16.440Z,2.10
2023-04-29T04:22:17.715Z,1.98
2023-04-29T04:27:21.026Z,2.33
2023-04-29T04:32:23.637Z,2.10
2023-04-29T04:37:25.020Z,2.10
2023-04-29T04:42:29.010Z,2.07
2023-04-29T04:47:30.316Z,2.28
2023-04-29T04:52:31.617Z,2.07
2023-04-29T04:57:32.925Z,2.20
2023-04-29T05:02:34.408Z,2.35
2023-04-29T05:07:35.997Z,2.00
2023-04-29T05:12:37.288Z,1.90
2023-04-29T05:17:38.754Z,1.90
2023-04-29T05:22:40.129Z,1.80
2023-04-29T05:27:41.557Z,2.47
2023-04-29T05:32:42.960Z,1.90
2023-04-29T05:37:44.287Z,1.60
2023-04-29T05:42:45.568Z,1.77
2023-04-29T05:47:46.893Z,1.90
2023-04-29T05:52:48.202Z,1.80
2023-04-29T05:57:49.479Z,2.00
2023-04-29T06:02:58.261Z,1.87
2023-04-29T06:08:01.082Z,1.60
2023-04-29T06:13:02.387Z,2.08
2023-04-29T06:18:03.897Z,2.20
2023-04-29T06:23:05.834Z,2.20
2023-04-29T06:28:08.457Z,2.08
2023-04-29T06:33:09.852Z,2.60
2023-04-29T06:38:11.263Z,1.80
2023-04-29T06:43:12.574Z,2.20
2023-04-29T06:48:14.041Z,2.00
2023-04-29T06:53:15.472Z,2.22
2023-04-29T06:58:17.194Z,2.13
2023-04-29T07:03:18.993Z,3.23
2023-04-29T07:08:20.532Z,2.38
2023-04-29T07:13:21.873Z,2.43
2023-04-29T07:18:23.362Z,2.60
2023-04-29T07:23:27.043Z,2.13
2023-04-29T07:28:28.322Z,2.60
2023-04-29T07:33:29.653Z,2.10
2023-04-29T07:38:30.946Z,2.25
2023-04-29T07:43:32.407Z,2.87
2023-04-29T07:48:38.334Z,2.37
2023-04-29T07:53:39.743Z,2.70
2023-04-29T07:58:41.046Z,2.40
2023-04-29T08:03:42.829Z,3.23
2023-04-29T08:08:44.283Z,3.13
2023-04-29T08:13:45.687Z,3.60
2023-04-29T08:18:46.992Z,2.37
2023-04-29T08:23:48.323Z,2.58
2023-04-29T08:28:49.924Z,2.38
2023-04-29T08:33:51.268Z,2.40
2023-04-29T08:38:53.153Z,2.50
2023-04-29T08:43:54.743Z,2.30
2023-04-29T08:48:57.787Z,2.03
2023-04-29T08:53:59.162Z,2.20
2023-04-29T08:59:01.974Z,2.60
2023-04-29T09:04:23.046Z,2.80
2023-04-29T09:09:24.723Z,2.17
2023-04-29T09:14:26.268Z,2.00
2023-04-29T09:19:34.666Z,2.30
2023-04-29T09:24:36.496Z,2.08
2023-04-29T09:29:39.202Z,2.42
2023-04-29T09:34:41.306Z,2.47
2023-04-29T09:39:42.572Z,2.78
2023-04-29T09:44:44.244Z,2.50
2023-04-29T09:49:46.152Z,2.23
2023-04-29T09:54:47.499Z,2.22
2023-04-29T09:59:48.754Z,2.03
2023-04-29T10:04:57.965Z,3.03
2023-04-29T10:09:59.497Z,2.38
2023-04-29T10:15:04.235Z,2.80
2023-04-29T10:20:06.210Z,3.13
2023-04-29T10:25:07.879Z,2.45
2023-04-29T10:30:11.990Z,3.05
2023-04-29T10:35:14.554Z,3.43
2023-04-29T10:40:18.461Z,6.00
2023-04-29T10:45:23.007Z,6.13
2023-04-29T10:50:24.282Z,6.00
2023-04-29T10:55:26.735Z,5.97
2023-04-29T11:00:28.850Z,5.70
2023-04-29T11:05:39.536Z,5.90
2023-04-29T11:10:41.792Z,5.80
2023-04-29T11:15:43.102Z,6.15
2023-04-29T11:21:03.398Z,5.40
2023-04-29T11:26:04.887Z,6.07
2023-04-29T11:31:07.324Z,5.90
2023-04-29T11:36:09.753Z,6.38
2023-04-29T11:41:11.489Z,5.77
2023-04-29T11:46:13.812Z,5.55
2023-04-29T11:51:15.907Z,5.65
2023-04-29T11:56:17.302Z,5.07
2023-04-29T12:01:19.805Z,5.25
2023-04-29T12:06:21.055Z,4.57
2023-04-29T12:11:25.285Z,4.63
2023-04-29T12:16:29.246Z,4.35
2023-04-29T12:21:31.820Z,4.13
2023-04-29T12:26:33.470Z,4.80
2023-04-29T12:31:34.968Z,4.35
2023-04-29T12:36:37.676Z,4.05
2023-04-29T12:41:42.583Z,4.33
2023-04-29T12:46:44.012Z,4.13
2023-04-29T12:51:45.877Z,4.40
2023-04-29T12:56:48.555Z,3.78
2023-04-29T13:01:50.499Z,4.30
2023-04-29T13:06:58.380Z,4.10
2023-04-29T13:11:59.774Z,3.92
2023-04-29T13:17:01.363Z,3.60
2023-04-29T13:22:02.769Z,3.60
2023-04-29T13:27:04.096Z,3.53
2023-04-29T13:32:05.523Z,4.20
2023-04-29T13:37:07.018Z,4.43
2023-04-29T13:42:08.981Z,3.47
2023-04-29T13:47:13.667Z,3.30
2023-04-29T13:53:09.836Z,3.53
2023-04-29T14:02:41.601Z,3.88
2023-04-29T14:07:43.070Z,3.87
2023-04-29T14:12:44.400Z,3.78
2023-04-29T14:17:45.795Z,3.75
2023-04-29T14:22:47.184Z,3.93
2023-04-29T14:27:49.255Z,4.63
2023-04-29T14:32:51.102Z,3.22
2023-04-29T14:37:53.022Z,3.30
2023-04-29T14:42:54.403Z,3.17
2023-04-29T14:47:55.959Z,3.22
2023-04-29T14:52:58.162Z,3.10
2023-04-29T14:57:59.471Z,3.00
2023-04-29T15:03:02.185Z,3.15
2023-04-29T15:08:05.410Z,3.35
2023-04-29T15:13:06.714Z,3.47
2023-04-29T15:18:08.992Z,3.50
2023-04-29T15:23:11.084Z,3.20
2023-04-29T15:28:12.366Z,3.25
2023-04-29T15:33:13.720Z,2.70
2023-04-29T15:38:15.008Z,3.10
2023-04-29T15:43:16.608Z,4.18
2023-04-29T15:48:20.859Z,3.87
2023-04-29T15:53:23.229Z,6.85
2023-04-29T15:58:24.638Z,3.30
2023-04-29T16:03:26.501Z,3.23
2023-04-29T16:08:27.886Z,3.43
2023-04-29T16:13:29.203Z,4.15
2023-04-29T16:18:30.907Z,3.40
2023-04-29T16:23:32.199Z,4.27
2023-04-29T16:28:33.474Z,3.80
2023-04-29T16:33:34.867Z,3.80
2023-04-29T16:38:36.441Z,3.83
2023-04-29T16:43:37.700Z,4.03
2023-04-29T16:48:39.005Z,4.07
2023-04-29T16:53:40.364Z,4.43
2023-04-29T16:58:41.817Z,5.43
2023-04-29T17:03:43.162Z,3.97
2023-04-29T17:08:45.474Z,3.90
2023-04-29T17:13:47.011Z,4.30
2023-04-29T17:18:48.286Z,3.58
2023-04-29T17:23:49.605Z,3.40
2023-04-29T17:28:50.914Z,3.47
2023-04-29T17:34:04.894Z,3.17
2023-04-29T17:39:09.846Z,2.90
2023-04-29T17:44:11.199Z,3.55
2023-04-29T17:49:12.697Z,3.22
2023-04-29T17:54:14.045Z,3.27
2023-04-29T17:59:15.509Z,3.28
2023-04-29T18:04:16.838Z,3.60
2023-04-29T18:09:18.217Z,3.10
2023-04-29T18:14:19.588Z,3.10
2023-04-29T18:19:20.914Z,3.55
2023-04-29T18:24:22.213Z,5.10
2023-04-29T18:29:23.874Z,5.45
2023-04-29T18:34:25.152Z,3.50
2023-04-29T18:39:26.602Z,4.10
2023-04-29T18:44:28.950Z,4.15
2023-04-29T18:49:30.527Z,4.10
2023-04-29T18:54:32.164Z,4.23
2023-04-29T18:59:35.935Z,6.38
2023-04-29T19:04:37.311Z,5.00
2023-04-29T19:09:38.630Z,5.20
2023-04-29T19:14:39.933Z,3.78
2023-04-29T19:19:41.289Z,5.07
2023-04-29T19:24:43.223Z,6.00
2023-04-29T19:29:44.494Z,4.50
2023-04-29T19:34:46.732Z,4.10
2023-04-29T19:39:47.997Z,3.70
2023-04-29T19:44:49.329Z,4.03
2023-04-29T19:49:50.678Z,3.75
2023-04-29T19:54:51.994Z,4.10
2023-04-29T19:59:53.550Z,4.53
2023-04-29T20:04:55.892Z,4.78
2023-04-29T20:09:57.258Z,5.23
2023-04-29T20:14:58.966Z,5.10
2023-04-29T20:20:00.262Z,4.78
2023-04-29T20:25:01.884Z,5.13
2023-04-29T20:30:03.376Z,4.20
2023-04-29T20:35:05.584Z,4.70
2023-04-29T20:40:07.800Z,4.72
2023-04-29T20:45:09.689Z,4.53
2023-04-29T20:50:11.900Z,4.07
2023-04-29T20:55:14.041Z,4.63
2023-04-29T21:00:15.528Z,4.15
2023-04-29T21:05:17.691Z,4.33
2023-04-29T21:10:22.631Z,4.07
2023-04-29T21:15:24.324Z,4.70
2023-04-29T21:20:28.077Z,4.35
2023-04-29T21:25:29.408Z,3.95
2023-04-29T21:30:30.782Z,4.57
2023-04-29T21:35:32.087Z,4.47
2023-04-29T21:40:33.427Z,4.20
2023-04-29T21:45:35.285Z,5.28
2023-04-29T21:50:36.567Z,6.90
2023-04-29T21:55:38.132Z,5.70
2023-04-29T22:00:47.683Z,4.28
2023-04-29T22:05:49.176Z,4.77
2023-04-29T22:10:50.517Z,4.68
2023-04-29T22:15:51.865Z,4.90
2023-04-29T22:20:53.243Z,4.90
2023-04-29T22:25:54.549Z,4.10
2023-04-29T22:30:57.968Z,4.13
2023-04-29T22:35:59.253Z,3.85
2023-04-29T22:41:01.788Z,4.22
2023-04-29T22:46:03.425Z,4.00
2023-04-29T22:51:04.856Z,4.28
2023-04-29T22:56:06.266Z,5.27
2023-04-29T23:01:08.923Z,6.05
2023-04-29T23:06:11.444Z,6.05
2023-04-29T23:11:13.166Z,5.80
2023-04-29T23:16:14.556Z,5.00
2023-04-29T23:21:15.892Z,4.80
2023-04-29T23:26:17.200Z,4.37
2023-04-29T23:31:18.565Z,4.20
2023-04-29T23:36:19.868Z,4.50
2023-04-29T23:41:21.192Z,4.17
2023-04-29T23:46:22.852Z,4.63
2023-04-29T23:51:24.388Z,4.47
2023-04-29T23:56:28.855Z,4.32
